sensor_id;sensor_type;location;lat;lon;timestamp;pressure;altitude;pressure_sealevel;temperature;humidity
43824;BME280;29470;53.550;9.926;2023-08-30T00:02:42;100442.19;;;18.59;87.77
43824;BME280;29470;53.550;9.926;2023-08-30T00:07:45;100434.38;;;18.60;87.66
43824;BME280;29470;53.550;9.926;2023-08-30T00:12:48;100435.56;;;18.43;88.42
43824;BME280;29470;53.550;9.926;2023-08-30T00:17:52;100432.97;;;18.43;88.31
43824;BME280;29470;53.550;9.926;2023-08-30T00:22:55;100432.81;;;18.38;88.77
43824;BME280;29470;53.550;9.926;2023-08-30T00:27:58;100438.69;;;18.58;88.17
43824;BME280;29470;53.550;9.926;2023-08-30T00:33:03;100433.34;;;18.28;90.66
43824;BME280;29470;53.550;9.926;2023-08-30T00:38:06;100433.47;;;18.05;90.62
43824;BME280;29470;53.550;9.926;2023-08-30T00:43:10;100433.25;;;17.99;92.20
43824;BME280;29470;53.550;9.926;2023-08-30T00:48:15;100426.13;;;18.20;90.91
43824;BME280;29470;53.550;9.926;2023-08-30T00:53:18;100424.16;;;18.13;91.43
43824;BME280;29470;53.550;9.926;2023-08-30T00:58:21;100430.16;;;18.10;92.29
43824;BME280;29470;53.550;9.926;2023-08-30T01:03:26;100422.13;;;17.80;94.42
43824;BME280;29470;53.550;9.926;2023-08-30T01:08:29;100413.59;;;18.10;91.96
43824;BME280;29470;53.550;9.926;2023-08-30T01:13:37;100413.91;;;18.19;91.44
43824;BME280;29470;53.550;9.926;2023-08-30T01:18:44;100422.06;;;18.03;92.53
43824;BME280;29470;53.550;9.926;2023-08-30T01:23:51;100415.06;;;18.29;90.57
43824;BME280;29470;53.550;9.926;2023-08-30T01:29:01;100412.16;;;18.20;91.22
43824;BME280;29470;53.550;9.926;2023-08-30T01:34:06;100401.75;;;18.21;90.38
43824;BME280;29470;53.550;9.926;2023-08-30T01:39:10;100395.38;;;18.13;90.78
43824;BME280;29470;53.550;9.926;2023-08-30T01:44:15;100400.28;;;18.30;89.86
43824;BME280;29470;53.550;9.926;2023-08-30T01:49:18;100398.75;;;18.10;91.55
43824;BME280;29470;53.550;9.926;2023-08-30T01:54:22;100396.97;;;18.09;90.50
43824;BME280;29470;53.550;9.926;2023-08-30T01:59:26;100391.84;;;18.13;90.33
43824;BME280;29470;53.550;9.926;2023-08-30T02:04:30;100380.59;;;18.15;89.58
43824;BME280;29470;53.550;9.926;2023-08-30T02:09:38;100389.63;;;17.99;92.29
43824;BME280;29470;53.550;9.926;2023-08-30T02:14:47;100384.28;;;17.96;91.03
43824;BME280;29470;53.550;9.926;2023-08-30T02:19:51;100382.09;;;18.07;89.80
43824;BME280;29470;53.550;9.926;2023-08-30T02:24:55;100370.06;;;18.14;88.88
43824;BME280;29470;53.550;9.926;2023-08-30T02:29:59;100361.28;;;18.39;86.54
43824;BME280;29470;53.550;9.926;2023-08-30T02:35:03;100368.41;;;18.16;87.58
43824;BME280;29470;53.550;9.926;2023-08-30T02:40:07;100359.00;;;18.50;86.44
43824;BME280;29470;53.550;9.926;2023-08-30T02:45:14;100371.28;;;18.23;87.57
43824;BME280;29470;53.550;9.926;2023-08-30T02:50:17;100355.09;;;18.66;85.42
43824;BME280;29470;53.550;9.926;2023-08-30T02:55:19;100367.97;;;18.58;86.12
43824;BME280;29470;53.550;9.926;2023-08-30T03:00:23;100361.59;;;18.48;85.27
43824;BME280;29470;53.550;9.926;2023-08-30T03:05:26;100360.97;;;18.57;85.16
43824;BME280;29470;53.550;9.926;2023-08-30T03:10:29;100360.94;;;18.86;84.62
43824;BME280;29470;53.550;9.926;2023-08-30T03:15:35;100357.47;;;18.87;83.00
43824;BME280;29470;53.550;9.926;2023-08-30T03:20:38;100356.53;;;18.85;83.61
43824;BME280;29470;53.550;9.926;2023-08-30T03:25:41;100348.16;;;18.97;83.32
43824;BME280;29470;53.550;9.926;2023-08-30T03:30:45;100361.63;;;18.80;83.49
43824;BME280;29470;53.550;9.926;2023-08-30T03:35:48;100350.19;;;19.06;82.90
43824;BME280;29470;53.550;9.926;2023-08-30T03:40:53;100338.44;;;19.23;81.79
43824;BME280;29470;53.550;9.926;2023-08-30T03:45:58;100335.59;;;19.49;80.73
43824;BME280;29470;53.550;9.926;2023-08-30T03:51:01;100336.84;;;19.30;81.33
43824;BME280;29470;53.550;9.926;2023-08-30T03:56:03;100341.22;;;19.30;82.87
43824;BME280;29470;53.550;9.926;2023-08-30T04:01:08;100328.47;;;19.10;84.03
43824;BME280;29470;53.550;9.926;2023-08-30T04:06:12;100317.63;;;19.30;82.29
43824;BME280;29470;53.550;9.926;2023-08-30T04:11:15;100320.84;;;19.19;83.77
43824;BME280;29470;53.550;9.926;2023-08-30T04:16:21;100302.06;;;19.04;83.77
43824;BME280;29470;53.550;9.926;2023-08-30T04:21:24;100303.19;;;19.13;82.66
43824;BME280;29470;53.550;9.926;2023-08-30T04:26:27;100301.50;;;19.16;82.94
43824;BME280;29470;53.550;9.926;2023-08-30T04:31:31;100287.88;;;19.27;80.90
43824;BME280;29470;53.550;9.926;2023-08-30T04:36:35;100288.09;;;19.37;79.95
43824;BME280;29470;53.550;9.926;2023-08-30T04:41:38;100285.44;;;19.35;80.55
43824;BME280;29470;53.550;9.926;2023-08-30T04:46:43;100280.31;;;19.40;79.50
43824;BME280;29470;53.550;9.926;2023-08-30T04:51:47;100284.22;;;19.57;77.99
43824;BME280;29470;53.550;9.926;2023-08-30T04:56:49;100276.78;;;19.75;76.84
43824;BME280;29470;53.550;9.926;2023-08-30T05:01:54;100275.19;;;19.81;77.36
43824;BME280;29470;53.550;9.926;2023-08-30T05:07:00;100273.75;;;19.93;74.79
43824;BME280;29470;53.550;9.926;2023-08-30T05:12:04;100268.47;;;19.91;74.83
43824;BME280;29470;53.550;9.926;2023-08-30T05:17:09;100270.19;;;19.91;73.71
43824;BME280;29470;53.550;9.926;2023-08-30T05:22:12;100272.41;;;20.10;72.56
43824;BME280;29470;53.550;9.926;2023-08-30T05:27:15;100266.69;;;20.28;72.57
43824;BME280;29470;53.550;9.926;2023-08-30T05:32:20;100270.75;;;20.15;72.67
43824;BME280;29470;53.550;9.926;2023-08-30T05:37:43;100281.06;;;20.06;72.52
43824;BME280;29470;53.550;9.926;2023-08-30T05:42:52;100284.00;;;20.20;72.28
43824;BME280;29470;53.550;9.926;2023-08-30T05:47:58;100276.78;;;20.11;71.15
43824;BME280;29470;53.550;9.926;2023-08-30T05:53:02;100269.81;;;20.53;69.97
43824;BME280;29470;53.550;9.926;2023-08-30T05:58:05;100262.09;;;20.61;66.87
43824;BME280;29470;53.550;9.926;2023-08-30T06:03:10;100268.75;;;20.43;70.02
43824;BME280;29470;53.550;9.926;2023-08-30T06:08:13;100263.16;;;20.71;69.73
43824;BME280;29470;53.550;9.926;2023-08-30T06:13:16;100247.69;;;20.83;66.00
43824;BME280;29470;53.550;9.926;2023-08-30T06:18:20;100236.25;;;21.30;62.86
43824;BME280;29470;53.550;9.926;2023-08-30T06:23:23;100241.00;;;21.53;61.12
43824;BME280;29470;53.550;9.926;2023-08-30T06:28:26;100239.47;;;21.65;59.46
43824;BME280;29470;53.550;9.926;2023-08-30T06:33:30;100236.94;;;21.71;61.37
43824;BME280;29470;53.550;9.926;2023-08-30T06:38:33;100232.41;;;21.62;59.47
43824;BME280;29470;53.550;9.926;2023-08-30T06:43:37;100222.59;;;21.53;60.61
43824;BME280;29470;53.550;9.926;2023-08-30T06:48:41;100224.81;;;21.81;58.68
43824;BME280;29470;53.550;9.926;2023-08-30T06:53:44;100217.56;;;23.07;54.24
43824;BME280;29470;53.550;9.926;2023-08-30T06:58:47;100215.69;;;24.02;53.14
43824;BME280;29470;53.550;9.926;2023-08-30T07:03:51;100211.13;;;23.78;52.52
43824;BME280;29470;53.550;9.926;2023-08-30T07:08:54;100205.38;;;24.50;50.28
43824;BME280;29470;53.550;9.926;2023-08-30T07:13:57;100203.22;;;23.76;51.94
43824;BME280;29470;53.550;9.926;2023-08-30T07:19:04;100218.56;;;23.17;53.99
43824;BME280;29470;53.550;9.926;2023-08-30T07:24:08;100225.69;;;23.26;53.87
43824;BME280;29470;53.550;9.926;2023-08-30T07:29:16;100221.44;;;23.42;52.52
43824;BME280;29470;53.550;9.926;2023-08-30T07:34:20;100215.59;;;23.85;51.96
43824;BME280;29470;53.550;9.926;2023-08-30T07:46:15;100220.44;;;24.76;49.65
43824;BME280;29470;53.550;9.926;2023-08-30T07:51:21;100218.69;;;26.18;46.50
43824;BME280;29470;53.550;9.926;2023-08-30T07:56:24;100216.03;;;26.02;46.69
43824;BME280;29470;53.550;9.926;2023-08-30T08:01:27;100225.78;;;25.85;47.69
43824;BME280;29470;53.550;9.926;2023-08-30T08:06:32;100231.09;;;25.24;49.05
43824;BME280;29470;53.550;9.926;2023-08-30T08:11:35;100212.59;;;25.30;48.14
43824;BME280;29470;53.550;9.926;2023-08-30T08:16:39;100220.28;;;24.33;51.92
43824;BME280;29470;53.550;9.926;2023-08-30T08:21:45;100228.09;;;24.12;52.21
43824;BME280;29470;53.550;9.926;2023-08-30T08:26:48;100223.97;;;24.80;50.78
43824;BME280;29470;53.550;9.926;2023-08-30T08:31:52;100224.84;;;24.73;49.89
43824;BME280;29470;53.550;9.926;2023-08-30T08:36:57;100221.22;;;24.52;50.26
43824;BME280;29470;53.550;9.926;2023-08-30T08:42:01;100222.28;;;25.25;48.61
43824;BME280;29470;53.550;9.926;2023-08-30T08:47:04;100230.78;;;24.22;50.27
43824;BME280;29470;53.550;9.926;2023-08-30T08:52:09;100221.41;;;25.33;47.38
43824;BME280;29470;53.550;9.926;2023-08-30T08:57:30;100226.69;;;25.36;46.78
43824;BME280;29470;53.550;9.926;2023-08-30T09:02:34;100237.25;;;25.11;47.69
43824;BME280;29470;53.550;9.926;2023-08-30T09:07:38;100231.97;;;25.25;46.94
43824;BME280;29470;53.550;9.926;2023-08-30T09:12:42;100229.31;;;25.02;47.69
43824;BME280;29470;53.550;9.926;2023-08-30T09:17:45;100238.06;;;24.80;46.77
43824;BME280;29470;53.550;9.926;2023-08-30T09:22:50;100241.47;;;24.50;46.41
43824;BME280;29470;53.550;9.926;2023-08-30T09:27:59;100241.59;;;24.78;45.57
43824;BME280;29470;53.550;9.926;2023-08-30T09:33:02;100226.44;;;24.39;45.19
43824;BME280;29470;53.550;9.926;2023-08-30T09:38:07;100234.28;;;24.16;45.85
43824;BME280;29470;53.550;9.926;2023-08-30T09:43:10;100230.50;;;23.77;47.33
43824;BME280;29470;53.550;9.926;2023-08-30T09:48:14;100227.75;;;23.64;45.78
43824;BME280;29470;53.550;9.926;2023-08-30T09:53:21;100217.72;;;24.59;44.16
43824;BME280;29470;53.550;9.926;2023-08-30T09:58:27;100215.84;;;24.25;44.86
43824;BME280;29470;53.550;9.926;2023-08-30T10:03:31;100205.28;;;24.33;44.75
43824;BME280;29470;53.550;9.926;2023-08-30T10:08:38;100211.66;;;24.97;43.42
43824;BME280;29470;53.550;9.926;2023-08-30T10:13:42;100212.13;;;23.97;44.75
43824;BME280;29470;53.550;9.926;2023-08-30T10:18:47;100213.25;;;24.42;43.22
43824;BME280;29470;53.550;9.926;2023-08-30T10:24:09;100214.31;;;24.91;43.30
43824;BME280;29470;53.550;9.926;2023-08-30T10:29:33;100212.38;;;24.42;43.55
43824;BME280;29470;53.550;9.926;2023-08-30T10:34:37;100204.59;;;24.81;44.71
43824;BME280;29470;53.550;9.926;2023-08-30T10:39:42;100200.22;;;25.06;42.95
43824;BME280;29470;53.550;9.926;2023-08-30T10:44:48;100202.78;;;24.70;43.22
43824;BME280;29470;53.550;9.926;2023-08-30T10:50:11;100197.53;;;24.88;43.13
43824;BME280;29470;53.550;9.926;2023-08-30T10:55:16;100195.81;;;25.16;43.10
43824;BME280;29470;53.550;9.926;2023-08-30T11:00:20;100193.97;;;24.70;43.42
43824;BME280;29470;53.550;9.926;2023-08-30T11:05:24;100186.97;;;25.37;42.79
43824;BME280;29470;53.550;9.926;2023-08-30T11:10:29;100187.03;;;25.48;42.13
43824;BME280;29470;53.550;9.926;2023-08-30T11:15:32;100177.25;;;25.66;40.77
43824;BME280;29470;53.550;9.926;2023-08-30T11:20:35;100175.50;;;25.66;41.07
43824;BME280;29470;53.550;9.926;2023-08-30T11:25:39;100172.81;;;25.88;40.15
43824;BME280;29470;53.550;9.926;2023-08-30T11:30:42;100167.53;;;25.76;40.77
43824;BME280;29470;53.550;9.926;2023-08-30T11:35:45;100172.00;;;25.55;41.85
43824;BME280;29470;53.550;9.926;2023-08-30T11:40:51;100168.44;;;25.68;40.67
43824;BME280;29470;53.550;9.926;2023-08-30T11:45:57;100164.03;;;25.39;40.97
43824;BME280;29470;53.550;9.926;2023-08-30T11:51:00;100155.94;;;26.18;39.75
43824;BME280;29470;53.550;9.926;2023-08-30T11:56:05;100150.81;;;25.24;41.08
43824;BME280;29470;53.550;9.926;2023-08-30T12:01:09;100133.91;;;25.99;40.49
43824;BME280;29470;53.550;9.926;2023-08-30T12:06:12;100138.06;;;26.53;40.45
43824;BME280;29470;53.550;9.926;2023-08-30T12:11:20;100127.81;;;25.76;40.01
43824;BME280;29470;53.550;9.926;2023-08-30T12:16:23;100132.28;;;25.36;40.44
43824;BME280;29470;53.550;9.926;2023-08-30T12:21:26;100128.69;;;25.76;41.40
43824;BME280;29470;53.550;9.926;2023-08-30T12:26:32;100130.53;;;24.84;42.38
43824;BME280;29470;53.550;9.926;2023-08-30T12:31:35;100116.44;;;25.47;40.64
43824;BME280;29470;53.550;9.926;2023-08-30T12:36:39;100115.53;;;25.31;41.08
43824;BME280;29470;53.550;9.926;2023-08-30T12:41:43;100114.66;;;25.01;42.35
43824;BME280;29470;53.550;9.926;2023-08-30T12:46:46;100102.31;;;25.51;41.24
43824;BME280;29470;53.550;9.926;2023-08-30T12:51:49;100099.66;;;25.09;41.76
43824;BME280;29470;53.550;9.926;2023-08-30T12:56:53;100095.25;;;25.24;41.97
43824;BME280;29470;53.550;9.926;2023-08-30T13:01:55;100089.97;;;25.19;41.52
43824;BME280;29470;53.550;9.926;2023-08-30T13:06:58;100087.34;;;24.88;42.27
43824;BME280;29470;53.550;9.926;2023-08-30T13:12:03;100082.03;;;25.08;42.15
43824;BME280;29470;53.550;9.926;2023-08-30T13:17:08;100077.63;;;24.82;41.02
43824;BME280;29470;53.550;9.926;2023-08-30T13:22:20;100064.38;;;25.20;41.01
43824;BME280;29470;53.550;9.926;2023-08-30T13:27:24;100070.50;;;25.61;41.34
43824;BME280;29470;53.550;9.926;2023-08-30T13:32:27;100056.44;;;25.30;40.87
43824;BME280;29470;53.550;9.926;2023-08-30T13:43:42;100059.91;;;25.56;41.10
43824;BME280;29470;53.550;9.926;2023-08-30T13:48:45;100048.50;;;25.46;40.32
43824;BME280;29470;53.550;9.926;2023-08-30T13:54:13;100052.88;;;25.52;40.27
43824;BME280;29470;53.550;9.926;2023-08-30T13:59:59;100054.72;;;25.02;41.25
43824;BME280;29470;53.550;9.926;2023-08-30T14:05:11;100039.69;;;25.32;41.68
43824;BME280;29470;53.550;9.926;2023-08-30T14:10:21;100034.34;;;25.42;39.53
43824;BME280;29470;53.550;9.926;2023-08-30T14:15:46;100033.47;;;25.40;40.21
43824;BME280;29470;53.550;9.926;2023-08-30T14:21:14;100034.41;;;25.25;39.57
43824;BME280;29470;53.550;9.926;2023-08-30T14:26:19;100038.84;;;24.72;40.37
43824;BME280;29470;53.550;9.926;2023-08-30T14:31:31;100037.03;;;25.28;40.88
43824;BME280;29470;53.550;9.926;2023-08-30T14:36:36;100045.84;;;25.30;40.57
43824;BME280;29470;53.550;9.926;2023-08-30T14:42:18;100048.44;;;25.57;40.44
43824;BME280;29470;53.550;9.926;2023-08-30T14:48:01;100040.59;;;25.01;42.23
43824;BME280;29470;53.550;9.926;2023-08-30T14:53:45;100039.66;;;25.30;42.02
43824;BME280;29470;53.550;9.926;2023-08-30T14:59:35;100047.69;;;24.97;42.97
43824;BME280;29470;53.550;9.926;2023-08-30T15:11:11;100048.53;;;24.65;43.79
43824;BME280;29470;53.550;9.926;2023-08-30T15:16:24;100046.78;;;24.47;43.97
43824;BME280;29470;53.550;9.926;2023-08-30T15:21:41;100048.50;;;24.26;44.03
43824;BME280;29470;53.550;9.926;2023-08-30T15:26:54;100048.47;;;24.14;44.87
43824;BME280;29470;53.550;9.926;2023-08-30T15:32:14;100049.34;;;24.21;45.07
43824;BME280;29470;53.550;9.926;2023-08-30T15:37:34;100038.78;;;24.18;45.54
43824;BME280;29470;53.550;9.926;2023-08-30T15:42:50;100035.22;;;24.02;45.11
43824;BME280;29470;53.550;9.926;2023-08-30T15:47:53;100039.56;;;23.98;45.86
43824;BME280;29470;53.550;9.926;2023-08-30T15:52:57;100037.88;;;24.02;45.51
43824;BME280;29470;53.550;9.926;2023-08-30T15:58:00;100030.75;;;23.82;46.34
43824;BME280;29470;53.550;9.926;2023-08-30T16:03:04;100029.78;;;23.61;46.24
43824;BME280;29470;53.550;9.926;2023-08-30T16:08:09;100028.00;;;23.57;46.89
43824;BME280;29470;53.550;9.926;2023-08-30T16:13:12;100028.78;;;23.37;46.99
43824;BME280;29470;53.550;9.926;2023-08-30T16:18:15;100032.94;;;23.03;47.76
43824;BME280;29470;53.550;9.926;2023-08-30T16:23:19;100036.31;;;22.82;49.00
43824;BME280;29470;53.550;9.926;2023-08-30T16:28:22;100036.44;;;23.00;51.81
43824;BME280;29470;53.550;9.926;2023-08-30T16:33:25;100027.41;;;22.67;54.76
43824;BME280;29470;53.550;9.926;2023-08-30T16:38:30;100016.84;;;22.61;54.62
43824;BME280;29470;53.550;9.926;2023-08-30T16:43:34;100008.38;;;22.05;58.57
43824;BME280;29470;53.550;9.926;2023-08-30T16:53:41;100018.81;;;21.28;67.40
43824;BME280;29470;53.550;9.926;2023-08-30T16:58:44;100026.63;;;20.68;72.25
43824;BME280;29470;53.550;9.926;2023-08-30T17:03:47;100030.25;;;20.74;73.69
43824;BME280;29470;53.550;9.926;2023-08-30T17:08:51;100035.16;;;20.54;76.49
43824;BME280;29470;53.550;9.926;2023-08-30T17:13:54;100026.03;;;20.30;76.59
43824;BME280;29470;53.550;9.926;2023-08-30T17:18:57;100028.44;;;20.70;74.49
43824;BME280;29470;53.550;9.926;2023-08-30T17:24:01;100027.78;;;20.82;73.72
43824;BME280;29470;53.550;9.926;2023-08-30T17:29:04;100024.56;;;21.00;74.28
43824;BME280;29470;53.550;9.926;2023-08-30T17:34:07;100029.19;;;21.17;73.06
43824;BME280;29470;53.550;9.926;2023-08-30T17:39:11;100035.38;;;21.19;71.30
43824;BME280;29470;53.550;9.926;2023-08-30T17:44:15;100048.31;;;21.08;71.77
43824;BME280;29470;53.550;9.926;2023-08-30T17:49:18;100070.28;;;20.58;75.77
43824;BME280;29470;53.550;9.926;2023-08-30T17:54:22;100069.81;;;20.81;75.36
43824;BME280;29470;53.550;9.926;2023-08-30T17:59:25;100071.84;;;20.48;75.20
43824;BME280;29470;53.550;9.926;2023-08-30T18:04:30;100069.22;;;20.48;72.75
43824;BME280;29470;53.550;9.926;2023-08-30T18:09:41;100077.59;;;20.27;72.17
43824;BME280;29470;53.550;9.926;2023-08-30T18:15:09;100064.00;;;20.50;71.52
43824;BME280;29470;53.550;9.926;2023-08-30T18:20:19;100068.84;;;20.28;69.68
43824;BME280;29470;53.550;9.926;2023-08-30T18:25:23;100063.59;;;20.28;69.80
43824;BME280;29470;53.550;9.926;2023-08-30T18:30:27;100048.53;;;20.16;70.63
43824;BME280;29470;53.550;9.926;2023-08-30T18:35:31;100041.28;;;20.52;70.18
43824;BME280;29470;53.550;9.926;2023-08-30T18:40:36;100061.09;;;20.34;70.02
43824;BME280;29470;53.550;9.926;2023-08-30T18:45:43;100056.19;;;20.54;71.06
43824;BME280;29470;53.550;9.926;2023-08-30T18:50:49;100062.88;;;20.37;71.60
43824;BME280;29470;53.550;9.926;2023-08-30T18:55:53;100067.44;;;20.47;70.87
43824;BME280;29470;53.550;9.926;2023-08-30T19:00:59;100072.94;;;20.13;72.46
43824;BME280;29470;53.550;9.926;2023-08-30T19:06:02;100069.75;;;19.85;74.58
43824;BME280;29470;53.550;9.926;2023-08-30T19:11:10;100078.78;;;19.58;78.33
43824;BME280;29470;53.550;9.926;2023-08-30T19:16:15;100068.94;;;19.88;76.52
43824;BME280;29470;53.550;9.926;2023-08-30T19:21:19;100074.78;;;19.76;77.52
43824;BME280;29470;53.550;9.926;2023-08-30T19:26:25;100080.81;;;19.72;79.57
43824;BME280;29470;53.550;9.926;2023-08-30T19:31:32;100071.06;;;18.90;81.86
43824;BME280;29470;53.550;9.926;2023-08-30T19:36:36;100080.53;;;19.18;81.72
43824;BME280;29470;53.550;9.926;2023-08-30T19:41:41;100065.72;;;19.20;81.10
43824;BME280;29470;53.550;9.926;2023-08-30T19:46:43;100065.94;;;19.30;79.81
43824;BME280;29470;53.550;9.926;2023-08-30T19:51:46;100070.97;;;18.85;81.58
43824;BME280;29470;53.550;9.926;2023-08-30T19:56:51;100074.81;;;18.98;82.00
43824;BME280;29470;53.550;9.926;2023-08-30T20:01:54;100082.00;;;18.72;84.07
43824;BME280;29470;53.550;9.926;2023-08-30T20:06:57;100078.94;;;18.54;83.65
43824;BME280;29470;53.550;9.926;2023-08-30T20:12:01;100061.41;;;18.52;84.33
43824;BME280;29470;53.550;9.926;2023-08-30T20:17:06;100053.72;;;18.93;83.50
43824;BME280;29470;53.550;9.926;2023-08-30T20:22:09;100068.50;;;18.91;84.53
43824;BME280;29470;53.550;9.926;2023-08-30T20:27:14;100059.72;;;18.89;85.77
43824;BME280;29470;53.550;9.926;2023-08-30T20:32:17;100051.09;;;18.58;84.82
43824;BME280;29470;53.550;9.926;2023-08-30T20:43:10;100054.75;;;18.98;82.48
43824;BME280;29470;53.550;9.926;2023-08-30T20:48:35;100045.88;;;18.95;82.38
43824;BME280;29470;53.550;9.926;2023-08-30T20:54:06;100053.03;;;19.39;79.27
43824;BME280;29470;53.550;9.926;2023-08-30T20:59:10;100052.00;;;18.95;80.66
43824;BME280;29470;53.550;9.926;2023-08-30T21:04:13;100051.88;;;18.89;80.89
43824;BME280;29470;53.550;9.926;2023-08-30T21:09:16;100057.94;;;18.88;81.74
43824;BME280;29470;53.550;9.926;2023-08-30T21:14:20;100058.34;;;19.04;82.24
43824;BME280;29470;53.550;9.926;2023-08-30T21:19:23;100061.72;;;18.64;83.20
43824;BME280;29470;53.550;9.926;2023-08-30T21:24:30;100062.38;;;18.91;83.30
43824;BME280;29470;53.550;9.926;2023-08-30T21:29:35;100057.31;;;18.97;83.01
43824;BME280;29470;53.550;9.926;2023-08-30T21:34:38;100054.50;;;18.91;83.24
43824;BME280;29470;53.550;9.926;2023-08-30T21:39:42;100058.94;;;18.93;83.22
43824;BME280;29470;53.550;9.926;2023-08-30T21:44:47;100068.13;;;19.11;83.66
43824;BME280;29470;53.550;9.926;2023-08-30T21:49:50;100045.69;;;19.24;82.64
43824;BME280;29470;53.550;9.926;2023-08-30T21:54:53;100054.72;;;18.63;85.97
43824;BME280;29470;53.550;9.926;2023-08-30T21:59:57;100053.88;;;18.99;85.13
43824;BME280;29470;53.550;9.926;2023-08-30T22:05:00;100042.88;;;19.14;83.61
43824;BME280;29470;53.550;9.926;2023-08-30T22:10:04;100047.09;;;18.73;87.04
43824;BME280;29470;53.550;9.926;2023-08-30T22:15:10;100068.28;;;18.82;87.91
43824;BME280;29470;53.550;9.926;2023-08-30T22:20:15;100066.75;;;18.57;87.24
43824;BME280;29470;53.550;9.926;2023-08-30T22:25:20;100071.97;;;18.55;88.89
43824;BME280;29470;53.550;9.926;2023-08-30T22:30:24;100079.44;;;18.75;86.68
43824;BME280;29470;53.550;9.926;2023-08-30T22:35:28;100086.06;;;18.60;86.45
43824;BME280;29470;53.550;9.926;2023-08-30T22:40:30;100091.47;;;18.33;87.11
43824;BME280;29470;53.550;9.926;2023-08-30T22:45:35;100091.38;;;18.30;87.46
43824;BME280;29470;53.550;9.926;2023-08-30T22:50:37;100085.22;;;18.61;86.19
43824;BME280;29470;53.550;9.926;2023-08-30T22:55:42;100083.44;;;18.60;84.49
43824;BME280;29470;53.550;9.926;2023-08-30T23:00:47;100085.47;;;18.37;86.76
43824;BME280;29470;53.550;9.926;2023-08-30T23:05:50;100084.72;;;18.41;84.20
43824;BME280;29470;53.550;9.926;2023-08-30T23:10:52;100068.00;;;18.37;84.97
43824;BME280;29470;53.550;9.926;2023-08-30T23:15:57;100080.84;;;18.62;84.54
43824;BME280;29470;53.550;9.926;2023-08-30T23:21:00;100083.84;;;18.76;82.29
43824;BME280;29470;53.550;9.926;2023-08-30T23:26:03;100087.75;;;18.58;82.77
43824;BME280;29470;53.550;9.926;2023-08-30T23:31:10;100098.22;;;18.58;83.45
43824;BME280;29470;53.550;9.926;2023-08-30T23:36:14;100094.59;;;18.19;84.12
43824;BME280;29470;53.550;9.926;2023-08-30T23:41:16;100090.72;;;18.38;84.15
43824;BME280;29470;53.550;9.926;2023-08-30T23:46:22;100076.59;;;18.65;80.95
43824;BME280;29470;53.550;9.926;2023-08-30T23:51:25;100088.50;;;18.52;81.88
43824;BME280;29470;53.550;9.926;2023-08-30T23:56:28;100087.09;;;18.33;83.53
